sensor_id;sensor_type;location;lat;lon;timestamp;pressure;altitude;pressure_sealevel;temperature
69007;BMP180;56061;51.748;19.620;2024-03-02T00:01:48;98448.20;;;7.60
69007;BMP180;56061;51.748;19.620;2024-03-02T00:04:15;98445.00;;;7.60
69007;BMP180;56061;51.748;19.620;2024-03-02T00:06:41;98443.80;;;7.60
69007;BMP180;56061;51.748;19.620;2024-03-02T00:09:10;98437.40;;;7.60
69007;BMP180;56061;51.748;19.620;2024-03-02T00:11:39;98435.60;;;7.60
69007;BMP180;56061;51.748;19.620;2024-03-02T00:14:05;98435.20;;;7.60
69007;BMP180;56061;51.748;19.620;2024-03-02T00:16:32;98431.60;;;7.60
69007;BMP180;56061;51.748;19.620;2024-03-02T00:19:06;98443.00;;;7.60
69007;BMP180;56061;51.748;19.620;2024-03-02T00:21:33;98445.80;;;7.60
69007;BMP180;56061;51.748;19.620;2024-03-02T00:24:08;98450.00;;;7.60
69007;BMP180;56061;51.748;19.620;2024-03-02T00:26:39;98454.80;;;7.60
69007;BMP180;56061;51.748;19.620;2024-03-02T00:29:05;98455.80;;;7.60
69007;BMP180;56061;51.748;19.620;2024-03-02T00:31:32;98443.20;;;7.64
69007;BMP180;56061;51.748;19.620;2024-03-02T00:34:03;98440.80;;;7.70
69007;BMP180;56061;51.748;19.620;2024-03-02T00:36:31;98436.80;;;7.70
69007;BMP180;56061;51.748;19.620;2024-03-02T00:38:58;98429.20;;;7.70
69007;BMP180;56061;51.748;19.620;2024-03-02T00:41:29;98431.80;;;7.70
69007;BMP180;56061;51.748;19.620;2024-03-02T00:44:04;98437.60;;;7.70
69007;BMP180;56061;51.748;19.620;2024-03-02T00:46:38;98441.00;;;7.70
69007;BMP180;56061;51.748;19.620;2024-03-02T00:49:25;98437.00;;;7.70
69007;BMP180;56061;51.748;19.620;2024-03-02T00:51:54;98429.20;;;7.78
69007;BMP180;56061;51.748;19.620;2024-03-02T00:54:27;98436.40;;;7.80
69007;BMP180;56061;51.748;19.620;2024-03-02T00:56:56;98437.80;;;7.80
69007;BMP180;56061;51.748;19.620;2024-03-02T00:59:23;98441.60;;;7.80
69007;BMP180;56061;51.748;19.620;2024-03-02T01:01:50;98436.40;;;7.80
69007;BMP180;56061;51.748;19.620;2024-03-02T01:04:17;98433.20;;;7.80
69007;BMP180;56061;51.748;19.620;2024-03-02T01:06:44;98435.60;;;7.80
69007;BMP180;56061;51.748;19.620;2024-03-02T01:09:12;98435.60;;;7.84
69007;BMP180;56061;51.748;19.620;2024-03-02T01:11:41;98437.20;;;7.90
69007;BMP180;56061;51.748;19.620;2024-03-02T01:14:08;98436.80;;;7.90
69007;BMP180;56061;51.748;19.620;2024-03-02T01:16:34;98442.40;;;7.90
69007;BMP180;56061;51.748;19.620;2024-03-02T01:19:01;98441.20;;;7.90
69007;BMP180;56061;51.748;19.620;2024-03-02T01:21:27;98435.00;;;7.90
69007;BMP180;56061;51.748;19.620;2024-03-02T01:23:54;98431.60;;;7.88
69007;BMP180;56061;51.748;19.620;2024-03-02T01:26:20;98433.60;;;7.86
69007;BMP180;56061;51.748;19.620;2024-03-02T01:28:47;98437.40;;;7.84
69007;BMP180;56061;51.748;19.620;2024-03-02T01:31:13;98438.80;;;7.80
69007;BMP180;56061;51.748;19.620;2024-03-02T01:33:40;98432.80;;;7.80
69007;BMP180;56061;51.748;19.620;2024-03-02T01:36:06;98437.40;;;7.84
69007;BMP180;56061;51.748;19.620;2024-03-02T01:38:34;98434.80;;;7.88
69007;BMP180;56061;51.748;19.620;2024-03-02T01:41:01;98429.60;;;7.90
69007;BMP180;56061;51.748;19.620;2024-03-02T01:43:28;98431.20;;;7.90
69007;BMP180;56061;51.748;19.620;2024-03-02T01:45:55;98429.00;;;7.82
69007;BMP180;56061;51.748;19.620;2024-03-02T01:48:23;98427.80;;;7.80
69007;BMP180;56061;51.748;19.620;2024-03-02T01:50:50;98434.20;;;7.80
69007;BMP180;56061;51.748;19.620;2024-03-02T01:53:17;98427.80;;;7.80
69007;BMP180;56061;51.748;19.620;2024-03-02T01:55:44;98429.60;;;7.80
69007;BMP180;56061;51.748;19.620;2024-03-02T01:58:11;98427.60;;;7.80
69007;BMP180;56061;51.748;19.620;2024-03-02T02:00:37;98426.60;;;7.80
69007;BMP180;56061;51.748;19.620;2024-03-02T02:03:04;98426.20;;;7.80
69007;BMP180;56061;51.748;19.620;2024-03-02T02:05:31;98417.40;;;7.80
69007;BMP180;56061;51.748;19.620;2024-03-02T02:07:58;98422.00;;;7.80
69007;BMP180;56061;51.748;19.620;2024-03-02T02:10:24;98415.20;;;7.80
69007;BMP180;56061;51.748;19.620;2024-03-02T02:12:51;98417.00;;;7.90
69007;BMP180;56061;51.748;19.620;2024-03-02T02:15:23;98415.60;;;7.90
69007;BMP180;56061;51.748;19.620;2024-03-02T02:17:50;98410.80;;;7.90
69007;BMP180;56061;51.748;19.620;2024-03-02T02:20:17;98410.60;;;7.90
69007;BMP180;56061;51.748;19.620;2024-03-02T02:22:59;98404.20;;;7.90
69007;BMP180;56061;51.748;19.620;2024-03-02T02:25:28;98400.80;;;7.90
69007;BMP180;56061;51.748;19.620;2024-03-02T02:27:56;98405.60;;;7.90
69007;BMP180;56061;51.748;19.620;2024-03-02T02:30:27;98405.20;;;7.90
69007;BMP180;56061;51.748;19.620;2024-03-02T02:32:54;98404.20;;;7.90
69007;BMP180;56061;51.748;19.620;2024-03-02T02:35:21;98404.40;;;7.96
69007;BMP180;56061;51.748;19.620;2024-03-02T02:37:50;98402.60;;;7.98
69007;BMP180;56061;51.748;19.620;2024-03-02T02:40:17;98396.60;;;8.00
69007;BMP180;56061;51.748;19.620;2024-03-02T02:42:46;98390.20;;;8.00
69007;BMP180;56061;51.748;19.620;2024-03-02T02:45:12;98390.00;;;8.00
69007;BMP180;56061;51.748;19.620;2024-03-02T02:47:42;98386.80;;;8.00
69007;BMP180;56061;51.748;19.620;2024-03-02T02:50:09;98379.00;;;8.00
69007;BMP180;56061;51.748;19.620;2024-03-02T02:52:39;98382.00;;;8.00
69007;BMP180;56061;51.748;19.620;2024-03-02T02:55:12;98381.20;;;8.00
69007;BMP180;56061;51.748;19.620;2024-03-02T02:57:40;98382.00;;;8.00
69007;BMP180;56061;51.748;19.620;2024-03-02T03:00:12;98382.80;;;7.98
69007;BMP180;56061;51.748;19.620;2024-03-02T03:02:49;98383.60;;;7.96
69007;BMP180;56061;51.748;19.620;2024-03-02T03:05:18;98383.80;;;7.90
69007;BMP180;56061;51.748;19.620;2024-03-02T03:07:45;98380.60;;;7.90
69007;BMP180;56061;51.748;19.620;2024-03-02T03:10:12;98379.80;;;7.90
69007;BMP180;56061;51.748;19.620;2024-03-02T03:12:40;98378.60;;;7.90
69007;BMP180;56061;51.748;19.620;2024-03-02T03:15:09;98381.80;;;7.90
69007;BMP180;56061;51.748;19.620;2024-03-02T03:17:36;98386.60;;;7.90
69007;BMP180;56061;51.748;19.620;2024-03-02T03:20:05;98387.00;;;7.90
69007;BMP180;56061;51.748;19.620;2024-03-02T03:22:32;98393.20;;;7.90
69007;BMP180;56061;51.748;19.620;2024-03-02T03:24:59;98394.60;;;7.90
69007;BMP180;56061;51.748;19.620;2024-03-02T03:27:26;98391.60;;;7.90
69007;BMP180;56061;51.748;19.620;2024-03-02T03:29:53;98390.40;;;7.90
69007;BMP180;56061;51.748;19.620;2024-03-02T03:32:20;98384.40;;;7.90
69007;BMP180;56061;51.748;19.620;2024-03-02T03:34:47;98377.00;;;7.90
69007;BMP180;56061;51.748;19.620;2024-03-02T03:37:15;98377.40;;;7.90
69007;BMP180;56061;51.748;19.620;2024-03-02T03:39:41;98377.40;;;7.90
69007;BMP180;56061;51.748;19.620;2024-03-02T03:42:08;98370.40;;;7.90
69007;BMP180;56061;51.748;19.620;2024-03-02T03:44:35;98372.20;;;7.90
69007;BMP180;56061;51.748;19.620;2024-03-02T03:47:01;98366.40;;;7.90
69007;BMP180;56061;51.748;19.620;2024-03-02T03:49:29;98369.60;;;7.90
69007;BMP180;56061;51.748;19.620;2024-03-02T03:51:55;98363.20;;;7.90
69007;BMP180;56061;51.748;19.620;2024-03-02T03:54:22;98364.80;;;7.90
69007;BMP180;56061;51.748;19.620;2024-03-02T03:56:48;98370.40;;;7.88
69007;BMP180;56061;51.748;19.620;2024-03-02T03:59:15;98367.60;;;7.80
69007;BMP180;56061;51.748;19.620;2024-03-02T04:01:41;98367.00;;;7.80
69007;BMP180;56061;51.748;19.620;2024-03-02T04:04:08;98371.80;;;7.80
69007;BMP180;56061;51.748;19.620;2024-03-02T04:06:34;98373.60;;;7.70
69007;BMP180;56061;51.748;19.620;2024-03-02T04:09:01;98378.40;;;7.70
69007;BMP180;56061;51.748;19.620;2024-03-02T04:11:27;98377.40;;;7.60
69007;BMP180;56061;51.748;19.620;2024-03-02T04:13:54;98387.80;;;7.58
69007;BMP180;56061;51.748;19.620;2024-03-02T04:16:24;98377.00;;;7.50
69007;BMP180;56061;51.748;19.620;2024-03-02T04:18:50;98376.40;;;7.44
69007;BMP180;56061;51.748;19.620;2024-03-02T04:21:17;98376.80;;;7.40
69007;BMP180;56061;51.748;19.620;2024-03-02T04:23:43;98375.40;;;7.32
69007;BMP180;56061;51.748;19.620;2024-03-02T04:26:10;98372.20;;;7.30
69007;BMP180;56061;51.748;19.620;2024-03-02T04:28:36;98375.80;;;7.20
69007;BMP180;56061;51.748;19.620;2024-03-02T04:31:03;98370.60;;;7.20
69007;BMP180;56061;51.748;19.620;2024-03-02T04:33:30;98366.80;;;7.10
69007;BMP180;56061;51.748;19.620;2024-03-02T04:35:56;98365.80;;;7.10
69007;BMP180;56061;51.748;19.620;2024-03-02T04:38:23;98376.20;;;7.04
69007;BMP180;56061;51.748;19.620;2024-03-02T04:40:50;98378.40;;;7.00
69007;BMP180;56061;51.748;19.620;2024-03-02T04:43:16;98376.80;;;6.90
69007;BMP180;56061;51.748;19.620;2024-03-02T04:45:43;98382.60;;;6.90
69007;BMP180;56061;51.748;19.620;2024-03-02T04:48:10;98374.00;;;6.80
69007;BMP180;56061;51.748;19.620;2024-03-02T04:50:36;98374.40;;;6.80
69007;BMP180;56061;51.748;19.620;2024-03-02T04:53:03;98379.60;;;6.80
69007;BMP180;56061;51.748;19.620;2024-03-02T04:55:29;98386.00;;;6.72
69007;BMP180;56061;51.748;19.620;2024-03-02T04:57:58;98384.80;;;6.70
69007;BMP180;56061;51.748;19.620;2024-03-02T05:00:24;98386.00;;;6.70
69007;BMP180;56061;51.748;19.620;2024-03-02T05:02:51;98387.60;;;6.70
69007;BMP180;56061;51.748;19.620;2024-03-02T05:05:17;98392.00;;;6.70
69007;BMP180;56061;51.748;19.620;2024-03-02T05:07:44;98387.40;;;6.70
69007;BMP180;56061;51.748;19.620;2024-03-02T05:10:11;98387.20;;;6.70
69007;BMP180;56061;51.748;19.620;2024-03-02T05:12:41;98385.20;;;6.70
69007;BMP180;56061;51.748;19.620;2024-03-02T05:15:14;98386.60;;;6.70
69007;BMP180;56061;51.748;19.620;2024-03-02T05:17:42;98388.00;;;6.70
69007;BMP180;56061;51.748;19.620;2024-03-02T05:20:11;98391.80;;;6.70
69007;BMP180;56061;51.748;19.620;2024-03-02T05:22:38;98395.80;;;6.68
69007;BMP180;56061;51.748;19.620;2024-03-02T05:25:06;98398.60;;;6.60
69007;BMP180;56061;51.748;19.620;2024-03-02T05:27:33;98402.00;;;6.60
69007;BMP180;56061;51.748;19.620;2024-03-02T05:30:01;98404.60;;;6.60
69007;BMP180;56061;51.748;19.620;2024-03-02T05:32:28;98405.00;;;6.60
69007;BMP180;56061;51.748;19.620;2024-03-02T05:34:54;98406.40;;;6.58
69007;BMP180;56061;51.748;19.620;2024-03-02T05:37:21;98406.20;;;6.50
69007;BMP180;56061;51.748;19.620;2024-03-02T05:39:48;98409.00;;;6.50
69007;BMP180;56061;51.748;19.620;2024-03-02T05:42:15;98412.60;;;6.50
69007;BMP180;56061;51.748;19.620;2024-03-02T05:44:43;98413.40;;;6.50
69007;BMP180;56061;51.748;19.620;2024-03-02T05:47:09;98413.60;;;6.60
69007;BMP180;56061;51.748;19.620;2024-03-02T05:49:36;98412.20;;;6.60
69007;BMP180;56061;51.748;19.620;2024-03-02T05:52:02;98412.20;;;6.60
69007;BMP180;56061;51.748;19.620;2024-03-02T05:54:30;98415.00;;;6.60
69007;BMP180;56061;51.748;19.620;2024-03-02T05:56:56;98410.80;;;6.60
69007;BMP180;56061;51.748;19.620;2024-03-02T05:59:22;98406.00;;;6.56
69007;BMP180;56061;51.748;19.620;2024-03-02T06:01:49;98413.40;;;6.58
69007;BMP180;56061;51.748;19.620;2024-03-02T06:04:18;98419.40;;;6.58
69007;BMP180;56061;51.748;19.620;2024-03-02T06:06:45;98414.00;;;6.50
69007;BMP180;56061;51.748;19.620;2024-03-02T06:09:12;98411.60;;;6.56
69007;BMP180;56061;51.748;19.620;2024-03-02T06:11:40;98412.00;;;6.60
69007;BMP180;56061;51.748;19.620;2024-03-02T06:14:08;98417.60;;;6.60
69007;BMP180;56061;51.748;19.620;2024-03-02T06:16:35;98428.80;;;6.60
69007;BMP180;56061;51.748;19.620;2024-03-02T06:19:02;98432.60;;;6.62
69007;BMP180;56061;51.748;19.620;2024-03-02T06:21:29;98436.00;;;6.70
69007;BMP180;56061;51.748;19.620;2024-03-02T06:23:55;98428.60;;;6.70
69007;BMP180;56061;51.748;19.620;2024-03-02T06:26:23;98422.00;;;6.74
69007;BMP180;56061;51.748;19.620;2024-03-02T06:28:51;98421.20;;;6.80
69007;BMP180;56061;51.748;19.620;2024-03-02T06:31:18;98424.20;;;6.80
69007;BMP180;56061;51.748;19.620;2024-03-02T06:33:45;98430.60;;;6.80
69007;BMP180;56061;51.748;19.620;2024-03-02T06:36:12;98434.60;;;6.80
69007;BMP180;56061;51.748;19.620;2024-03-02T06:38:38;98428.20;;;6.90
69007;BMP180;56061;51.748;19.620;2024-03-02T06:41:09;98433.80;;;6.90
69007;BMP180;56061;51.748;19.620;2024-03-02T06:43:35;98423.80;;;6.98
69007;BMP180;56061;51.748;19.620;2024-03-02T06:46:02;98428.20;;;7.00
69007;BMP180;56061;51.748;19.620;2024-03-02T06:50:56;98436.20;;;7.00
69007;BMP180;56061;51.748;19.620;2024-03-02T06:53:24;98440.80;;;7.06
69007;BMP180;56061;51.748;19.620;2024-03-02T06:55:51;98442.00;;;7.10
69007;BMP180;56061;51.748;19.620;2024-03-02T06:58:17;98444.40;;;7.20
69007;BMP180;56061;51.748;19.620;2024-03-02T07:00:44;98451.40;;;7.20
69007;BMP180;56061;51.748;19.620;2024-03-02T07:03:24;98456.00;;;7.30
69007;BMP180;56061;51.748;19.620;2024-03-02T07:05:51;98453.60;;;7.40
69007;BMP180;56061;51.748;19.620;2024-03-02T07:08:17;98450.20;;;7.40
69007;BMP180;56061;51.748;19.620;2024-03-02T07:10:44;98453.00;;;7.50
69007;BMP180;56061;51.748;19.620;2024-03-02T07:13:23;98461.40;;;7.50
69007;BMP180;56061;51.748;19.620;2024-03-02T07:15:49;98457.60;;;7.60
69007;BMP180;56061;51.748;19.620;2024-03-02T07:18:31;98457.80;;;7.70
69007;BMP180;56061;51.748;19.620;2024-03-02T07:20:57;98465.20;;;7.70
69007;BMP180;56061;51.748;19.620;2024-03-02T07:23:51;98465.00;;;7.80
69007;BMP180;56061;51.748;19.620;2024-03-02T07:26:17;98467.20;;;7.90
69007;BMP180;56061;51.748;19.620;2024-03-02T07:28:48;98467.80;;;8.00
69007;BMP180;56061;51.748;19.620;2024-03-02T07:31:16;98463.40;;;8.02
69007;BMP180;56061;51.748;19.620;2024-03-02T07:33:46;98465.00;;;8.10
69007;BMP180;56061;51.748;19.620;2024-03-02T07:36:13;98465.60;;;8.20
69007;BMP180;56061;51.748;19.620;2024-03-02T07:38:40;98477.80;;;8.20
69007;BMP180;56061;51.748;19.620;2024-03-02T07:41:08;98476.20;;;8.30
69007;BMP180;56061;51.748;19.620;2024-03-02T07:43:38;98478.40;;;8.34
69007;BMP180;56061;51.748;19.620;2024-03-02T07:46:04;98471.40;;;8.40
69007;BMP180;56061;51.748;19.620;2024-03-02T07:48:32;98468.40;;;8.48
69007;BMP180;56061;51.748;19.620;2024-03-02T07:50:58;98470.00;;;8.50
69007;BMP180;56061;51.748;19.620;2024-03-02T07:53:25;98470.40;;;8.60
69007;BMP180;56061;51.748;19.620;2024-03-02T07:55:52;98464.80;;;8.70
69007;BMP180;56061;51.748;19.620;2024-03-02T07:58:18;98463.40;;;8.80
69007;BMP180;56061;51.748;19.620;2024-03-02T08:00:46;98467.80;;;8.90
69007;BMP180;56061;51.748;19.620;2024-03-02T08:03:14;98464.80;;;8.90
69007;BMP180;56061;51.748;19.620;2024-03-02T08:05:41;98471.40;;;9.00
69007;BMP180;56061;51.748;19.620;2024-03-02T08:08:07;98477.60;;;9.00
69007;BMP180;56061;51.748;19.620;2024-03-02T08:10:34;98481.80;;;9.10
69007;BMP180;56061;51.748;19.620;2024-03-02T08:13:09;98487.80;;;9.18
69007;BMP180;56061;51.748;19.620;2024-03-02T08:15:35;98488.20;;;9.20
69007;BMP180;56061;51.748;19.620;2024-03-02T08:18:02;98491.80;;;9.40
69007;BMP180;56061;51.748;19.620;2024-03-02T08:20:29;98493.20;;;9.52
69007;BMP180;56061;51.748;19.620;2024-03-02T08:22:55;98484.40;;;9.70
69007;BMP180;56061;51.748;19.620;2024-03-02T08:25:22;98482.40;;;9.80
69007;BMP180;56061;51.748;19.620;2024-03-02T08:27:58;98483.80;;;9.90
69007;BMP180;56061;51.748;19.620;2024-03-02T08:30:25;98484.20;;;10.00
69007;BMP180;56061;51.748;19.620;2024-03-02T08:32:51;98490.20;;;10.00
69007;BMP180;56061;51.748;19.620;2024-03-02T08:35:18;98483.80;;;10.10
69007;BMP180;56061;51.748;19.620;2024-03-02T08:37:45;98481.60;;;10.16
69007;BMP180;56061;51.748;19.620;2024-03-02T08:40:12;98475.40;;;10.20
69007;BMP180;56061;51.748;19.620;2024-03-02T08:42:43;98475.20;;;10.30
69007;BMP180;56061;51.748;19.620;2024-03-02T08:45:10;98482.80;;;10.40
69007;BMP180;56061;51.748;19.620;2024-03-02T08:47:36;98481.20;;;10.40
69007;BMP180;56061;51.748;19.620;2024-03-02T08:50:28;98482.40;;;10.50
69007;BMP180;56061;51.748;19.620;2024-03-02T08:52:54;98483.40;;;10.58
69007;BMP180;56061;51.748;19.620;2024-03-02T08:55:21;98486.40;;;10.60
69007;BMP180;56061;51.748;19.620;2024-03-02T08:57:47;98491.20;;;10.70
69007;BMP180;56061;51.748;19.620;2024-03-02T09:00:17;98487.20;;;10.80
69007;BMP180;56061;51.748;19.620;2024-03-02T09:02:44;98489.60;;;10.80
69007;BMP180;56061;51.748;19.620;2024-03-02T09:05:12;98486.80;;;10.88
69007;BMP180;56061;51.748;19.620;2024-03-02T09:07:38;98489.00;;;10.90
69007;BMP180;56061;51.748;19.620;2024-03-02T09:10:06;98486.80;;;11.00
69007;BMP180;56061;51.748;19.620;2024-03-02T09:12:37;98487.00;;;11.10
69007;BMP180;56061;51.748;19.620;2024-03-02T09:15:05;98485.00;;;11.10
69007;BMP180;56061;51.748;19.620;2024-03-02T09:17:32;98489.20;;;11.10
69007;BMP180;56061;51.748;19.620;2024-03-02T09:19:59;98495.00;;;11.10
69007;BMP180;56061;51.748;19.620;2024-03-02T09:22:26;98503.00;;;11.10
69007;BMP180;56061;51.748;19.620;2024-03-02T09:24:52;98496.20;;;11.00
69007;BMP180;56061;51.748;19.620;2024-03-02T09:27:19;98495.20;;;11.06
69007;BMP180;56061;51.748;19.620;2024-03-02T09:29:45;98495.80;;;11.18
69007;BMP180;56061;51.748;19.620;2024-03-02T09:32:13;98492.40;;;11.10
69007;BMP180;56061;51.748;19.620;2024-03-02T09:34:42;98493.00;;;11.10
69007;BMP180;56061;51.748;19.620;2024-03-02T09:37:09;98497.20;;;11.10
69007;BMP180;56061;51.748;19.620;2024-03-02T09:39:38;98490.00;;;11.10
69007;BMP180;56061;51.748;19.620;2024-03-02T09:42:05;98488.80;;;11.10
69007;BMP180;56061;51.748;19.620;2024-03-02T09:44:33;98491.80;;;11.10
69007;BMP180;56061;51.748;19.620;2024-03-02T09:47:00;98487.20;;;11.12
69007;BMP180;56061;51.748;19.620;2024-03-02T09:49:26;98484.20;;;11.20
69007;BMP180;56061;51.748;19.620;2024-03-02T09:51:53;98490.20;;;11.36
69007;BMP180;56061;51.748;19.620;2024-03-02T09:54:23;98488.80;;;11.30
69007;BMP180;56061;51.748;19.620;2024-03-02T09:56:50;98482.60;;;11.38
69007;BMP180;56061;51.748;19.620;2024-03-02T09:59:17;98486.00;;;11.40
69007;BMP180;56061;51.748;19.620;2024-03-02T10:02:01;98494.80;;;11.44
69007;BMP180;56061;51.748;19.620;2024-03-02T10:04:30;98490.40;;;11.52
69007;BMP180;56061;51.748;19.620;2024-03-02T10:07:17;98496.60;;;11.66
69007;BMP180;56061;51.748;19.620;2024-03-02T10:09:47;98498.00;;;11.70
69007;BMP180;56061;51.748;19.620;2024-03-02T10:12:23;98493.80;;;11.70
69007;BMP180;56061;51.748;19.620;2024-03-02T10:15:03;98500.60;;;11.70
69007;BMP180;56061;51.748;19.620;2024-03-02T10:19:59;98483.80;;;11.80
69007;BMP180;56061;51.748;19.620;2024-03-02T10:28:27;98486.00;;;11.70
69007;BMP180;56061;51.748;19.620;2024-03-02T10:30:54;98479.60;;;11.80
69007;BMP180;56061;51.748;19.620;2024-03-02T10:33:21;98483.20;;;11.72
69007;BMP180;56061;51.748;19.620;2024-03-02T10:35:50;98479.20;;;11.70
69007;BMP180;56061;51.748;19.620;2024-03-02T10:38:17;98480.60;;;11.60
69007;BMP180;56061;51.748;19.620;2024-03-02T10:40:47;98486.80;;;11.60
69007;BMP180;56061;51.748;19.620;2024-03-02T10:43:15;98479.60;;;11.60
69007;BMP180;56061;51.748;19.620;2024-03-02T10:45:44;98474.20;;;11.60
69007;BMP180;56061;51.748;19.620;2024-03-02T10:48:13;98478.00;;;11.68
69007;BMP180;56061;51.748;19.620;2024-03-02T10:50:41;98480.60;;;11.80
69007;BMP180;56061;51.748;19.620;2024-03-02T10:53:22;98482.00;;;11.92
69007;BMP180;56061;51.748;19.620;2024-03-02T10:55:58;98480.60;;;12.00
69007;BMP180;56061;51.748;19.620;2024-03-02T11:01:56;98481.20;;;12.02
69007;BMP180;56061;51.748;19.620;2024-03-02T11:04:31;98476.80;;;12.10
69007;BMP180;56061;51.748;19.620;2024-03-02T11:07:06;98475.40;;;12.00
69007;BMP180;56061;51.748;19.620;2024-03-02T11:09:35;98475.00;;;12.04
69007;BMP180;56061;51.748;19.620;2024-03-02T11:12:15;98475.20;;;12.16
69007;BMP180;56061;51.748;19.620;2024-03-02T11:14:45;98472.60;;;12.30
69007;BMP180;56061;51.748;19.620;2024-03-02T11:17:14;98469.00;;;12.40
69007;BMP180;56061;51.748;19.620;2024-03-02T11:19:44;98468.80;;;12.30
69007;BMP180;56061;51.748;19.620;2024-03-02T11:22:19;98469.40;;;12.40
69007;BMP180;56061;51.748;19.620;2024-03-02T11:24:50;98468.40;;;12.40
69007;BMP180;56061;51.748;19.620;2024-03-02T11:30:07;98459.20;;;12.50
69007;BMP180;56061;51.748;19.620;2024-03-02T11:32:34;98460.80;;;12.50
69007;BMP180;56061;51.748;19.620;2024-03-02T11:35:02;98461.80;;;12.60
69007;BMP180;56061;51.748;19.620;2024-03-02T11:37:29;98460.20;;;12.54
69007;BMP180;56061;51.748;19.620;2024-03-02T11:39:56;98457.80;;;12.50
69007;BMP180;56061;51.748;19.620;2024-03-02T11:44:59;98456.40;;;12.50
69007;BMP180;56061;51.748;19.620;2024-03-02T11:47:31;98457.00;;;12.50
69007;BMP180;56061;51.748;19.620;2024-03-02T11:50:02;98458.60;;;12.52
69007;BMP180;56061;51.748;19.620;2024-03-02T11:52:28;98464.60;;;12.60
69007;BMP180;56061;51.748;19.620;2024-03-02T11:54:58;98462.20;;;12.60
69007;BMP180;56061;51.748;19.620;2024-03-02T12:00:01;98462.80;;;12.50
69007;BMP180;56061;51.748;19.620;2024-03-02T12:02:30;98463.60;;;12.50
69007;BMP180;56061;51.748;19.620;2024-03-02T12:05:06;98458.80;;;12.40
69007;BMP180;56061;51.748;19.620;2024-03-02T12:07:34;98460.40;;;12.50
69007;BMP180;56061;51.748;19.620;2024-03-02T12:10:02;98457.60;;;12.50
69007;BMP180;56061;51.748;19.620;2024-03-02T12:12:29;98452.40;;;12.60
69007;BMP180;56061;51.748;19.620;2024-03-02T12:14:56;98456.20;;;12.64
69007;BMP180;56061;51.748;19.620;2024-03-02T12:17:29;98453.00;;;12.70
69007;BMP180;56061;51.748;19.620;2024-03-02T12:19:55;98452.80;;;12.80
69007;BMP180;56061;51.748;19.620;2024-03-02T12:22:22;98456.80;;;12.80
69007;BMP180;56061;51.748;19.620;2024-03-02T12:24:49;98454.60;;;12.90
69007;BMP180;56061;51.748;19.620;2024-03-02T12:27:16;98448.80;;;13.06
69007;BMP180;56061;51.748;19.620;2024-03-02T12:29:49;98449.20;;;13.20
69007;BMP180;56061;51.748;19.620;2024-03-02T12:32:16;98449.60;;;13.30
69007;BMP180;56061;51.748;19.620;2024-03-02T12:34:46;98453.20;;;13.30
69007;BMP180;56061;51.748;19.620;2024-03-02T12:37:13;98446.80;;;13.30
69007;BMP180;56061;51.748;19.620;2024-03-02T12:39:45;98448.20;;;13.36
69007;BMP180;56061;51.748;19.620;2024-03-02T12:42:13;98444.60;;;13.40
69007;BMP180;56061;51.748;19.620;2024-03-02T12:44:43;98447.40;;;13.30
69007;BMP180;56061;51.748;19.620;2024-03-02T12:47:09;98441.80;;;13.30
69007;BMP180;56061;51.748;19.620;2024-03-02T12:49:36;98442.80;;;13.26
69007;BMP180;56061;51.748;19.620;2024-03-02T12:52:03;98442.40;;;13.20
69007;BMP180;56061;51.748;19.620;2024-03-02T12:54:30;98441.00;;;13.20
69007;BMP180;56061;51.748;19.620;2024-03-02T12:56:57;98439.80;;;13.14
69007;BMP180;56061;51.748;19.620;2024-03-02T12:59:24;98441.20;;;13.10
69007;BMP180;56061;51.748;19.620;2024-03-02T13:01:54;98438.40;;;13.10
69007;BMP180;56061;51.748;19.620;2024-03-02T13:04:28;98435.20;;;13.10
69007;BMP180;56061;51.748;19.620;2024-03-02T13:07:04;98435.20;;;13.20
69007;BMP180;56061;51.748;19.620;2024-03-02T13:09:32;98434.80;;;13.20
69007;BMP180;56061;51.748;19.620;2024-03-02T13:11:59;98434.80;;;13.20
69007;BMP180;56061;51.748;19.620;2024-03-02T13:14:26;98431.60;;;13.20
69007;BMP180;56061;51.748;19.620;2024-03-02T13:16:52;98433.60;;;13.10
69007;BMP180;56061;51.748;19.620;2024-03-02T13:19:28;98425.20;;;13.10
69007;BMP180;56061;51.748;19.620;2024-03-02T13:21:57;98425.80;;;13.00
69007;BMP180;56061;51.748;19.620;2024-03-02T13:24:24;98429.20;;;13.00
69007;BMP180;56061;51.748;19.620;2024-03-02T13:26:55;98428.40;;;12.90
69007;BMP180;56061;51.748;19.620;2024-03-02T13:32:24;98427.80;;;12.80
69007;BMP180;56061;51.748;19.620;2024-03-02T13:34:52;98423.40;;;12.70
69007;BMP180;56061;51.748;19.620;2024-03-02T13:37:33;98426.80;;;12.70
69007;BMP180;56061;51.748;19.620;2024-03-02T13:39:59;98427.00;;;12.60
69007;BMP180;56061;51.748;19.620;2024-03-02T13:42:26;98425.00;;;12.66
69007;BMP180;56061;51.748;19.620;2024-03-02T13:44:54;98433.20;;;12.60
69007;BMP180;56061;51.748;19.620;2024-03-02T13:47:20;98429.60;;;12.60
69007;BMP180;56061;51.748;19.620;2024-03-02T13:50:13;98429.20;;;12.68
69007;BMP180;56061;51.748;19.620;2024-03-02T13:52:40;98432.40;;;12.60
69007;BMP180;56061;51.748;19.620;2024-03-02T13:55:07;98429.60;;;12.62
69007;BMP180;56061;51.748;19.620;2024-03-02T13:57:37;98433.60;;;12.60
69007;BMP180;56061;51.748;19.620;2024-03-02T14:00:05;98429.40;;;12.60
69007;BMP180;56061;51.748;19.620;2024-03-02T14:02:37;98435.20;;;12.60
69007;BMP180;56061;51.748;19.620;2024-03-02T14:05:04;98433.00;;;12.52
69007;BMP180;56061;51.748;19.620;2024-03-02T14:07:30;98433.00;;;12.50
69007;BMP180;56061;51.748;19.620;2024-03-02T14:09:58;98426.40;;;12.60
69007;BMP180;56061;51.748;19.620;2024-03-02T14:12:25;98424.00;;;12.70
69007;BMP180;56061;51.748;19.620;2024-03-02T14:14:52;98427.40;;;12.70
69007;BMP180;56061;51.748;19.620;2024-03-02T14:17:21;98423.20;;;12.70
69007;BMP180;56061;51.748;19.620;2024-03-02T14:19:48;98422.20;;;12.70
69007;BMP180;56061;51.748;19.620;2024-03-02T14:22:14;98421.00;;;12.70
69007;BMP180;56061;51.748;19.620;2024-03-02T14:24:57;98426.20;;;12.70
69007;BMP180;56061;51.748;19.620;2024-03-02T14:27:24;98418.80;;;12.64
69007;BMP180;56061;51.748;19.620;2024-03-02T14:29:57;98424.00;;;12.60
69007;BMP180;56061;51.748;19.620;2024-03-02T14:32:24;98428.80;;;12.52
69007;BMP180;56061;51.748;19.620;2024-03-02T14:34:59;98425.20;;;12.50
69007;BMP180;56061;51.748;19.620;2024-03-02T14:37:26;98431.60;;;12.50